Warren County Memorial Airport

About
Name: Warren County Memorial Airport
Identifier:  RNC/KRNC
Serves:  Warren County, Tennessee
Owner:  Warren County
Public/Private:  Public
Local Time:  18. Aug 11:58 CDT
Description: Warren County Memorial Airport is a county-owned public-use airport in Warren County, Tennessee, United States. It is located three nautical miles west of the central business district of McMinnville, Tennessee. This airport is included in the National Plan of Integrated Airport Systems for 2011–2015, which categorized it as a general aviation facility.
Source: Wikipedia
Location
McMinnville
  United States

Runways
Identifier Length (m/ft) Surface
5/23 5,000/5,000 Asphalt
Flights per Day
0 flights
Distance: 433km (269mi)
Punctuality
0% (0 flights per day delayed)
Delay Average: 23 minutes
Current Weather
 31 C (Humidity: 52%)
  5kt (9km/h / 5mph) from 290°
  16km (10 mi.)
 
 METAR KRNC 181635Z AUTO 29005KT 10SM CLR 31/20 A3005 RMK A01

Current Flights

Departures
Number Departure To Airline
Arrivals
Number Arrival From Airline

Current Delays

Departures
N/A
Arrivals
N/A

Destinations

Top Destinations
Airport Flights
per week
Seats
per week
  Olive Branch (OLV) 2 - 0 0
  Raleigh-Durham (RDU) 0 - 0 0
  Morristown (MOR) 0 - 0 0
  Bedford (BED) 0 - 0 0
  White Plains (HPN) 0 - 0 0

Airlines & Planes

Top Airlines
Airline Flights
per Day
Seats
per Day
  Flybe Nordic 0 -
  National Airlines 0 -
Top Plane Types
Model Flights Seats